Time;durP1;ratioP1;P1;durP2;ratioP2;P2;SDS_P1;SDS_P2;PMS_P1;PMS_P2;Temp;Humidity;BMP_temperature;BMP_pressure;BME280_temperature;BME280_humidity;BME280_pressure;Samples;Min_cycle;Max_cycle;Signal;HPM_P1;HPM_P2
2022/04/02 00:00:06;;;;;;;;;;;;;;;12.21;55.91;101318.22;1035805;28;682;-60
2022/04/02 00:00:56;;;;;;;;;;;;;;;12.21;55.35;101323.56;1040147;28;1240;-59
2022/04/02 00:01:47;;;;;;;;;;;;;;;12.22;55.85;101322.59;1040065;28;654;-60
2022/04/02 00:02:38;;;;;;;;;;;;;;;12.21;55.50;101326.22;1039863;28;611;-61
2022/04/02 00:03:28;;;;;;;;;;;;;;;12.21;55.92;101332.44;1039945;28;634;-61
2022/04/02 00:04:20;;;;;;;;;;;;;;;12.21;56.03;101323.56;1040561;28;713;-61
2022/04/02 00:05:11;;;;;;;;;;;;;;;12.20;55.77;101333.38;1039997;28;1973;-61
2022/04/02 00:06:01;;;;;;;;;;;;;;;12.20;55.55;101322.69;1040684;28;654;-61
2022/04/02 00:06:53;;;;;;;;;;;;;;;12.20;55.44;101335.19;1040533;28;841;-61
2022/04/02 00:07:44;;;;;;;;;;;;;;;12.20;55.23;101317.34;1040544;28;649;-61
2022/04/02 00:08:34;;;;;;;;;;;;;;;12.18;55.75;101325.47;1040480;28;661;-61
2022/04/02 00:09:25;;;;;;;;;;;;;;;12.18;55.87;101325.47;1040654;28;685;-61
2022/04/02 00:10:15;;;;;;;;;;;;;;;12.18;55.79;101322.78;1040769;28;661;-61
2022/04/02 00:11:05;;;;;;;;;;;;;;;12.18;55.62;101324.63;1040601;28;681;-61
2022/04/02 00:11:56;;;;;;;;;;;;;;;12.18;55.85;101323.78;1036698;28;634;-61
2022/04/02 00:12:46;;;;;;;;;;;;;;;12.18;56.09;101321.09;1035455;28;670;-61
2022/04/02 00:13:38;;;;;;;;;;;;;;;12.18;55.73;101318.44;1039755;28;657;-60
2022/04/02 00:14:29;;;;;;;;;;;;;;;12.18;56.16;101321.09;1036611;28;685;-61
2022/04/02 00:15:19;;;;;;;;;;;;;;;12.17;55.64;101322.91;1036171;28;698;-61
2022/04/02 00:16:10;;;;;;;;;;;;;;;12.17;56.20;101322.91;1039573;28;642;-60
2022/04/02 00:17:00;;;;;;;;;;;;;;;12.18;55.89;101321.09;1040464;28;673;-61
2022/04/02 00:17:51;;;;;;;;;;;;;;;12.18;55.82;101331.78;1040559;28;650;-61
2022/04/02 00:18:42;;;;;;;;;;;;;;;12.16;55.20;101322.06;1040535;28;775;-61
2022/04/02 00:19:32;;;;;;;;;;;;;;;12.15;55.59;101328.34;1039907;28;610;-61
2022/04/02 00:20:23;;;;;;;;;;;;;;;12.16;56.27;101326.53;1040584;28;614;-61
2022/04/02 00:21:13;;;;;;;;;;;;;;;12.15;55.52;101323.00;1039933;28;713;-61
2022/04/02 00:22:04;;;;;;;;;;;;;;;12.15;55.90;101320.34;1040512;28;622;-61
2022/04/02 00:24:03;;;;;;;;;;;;;;;12.15;55.51;101322.16;1036092;28;1504;-61
2022/04/02 00:24:53;;;;;;;;;;;;;;;12.15;55.45;101323.00;1035450;28;626;-61
2022/04/02 00:25:44;;;;;;;;;;;;;;;12.15;55.99;101320.34;1036686;28;693;-61
2022/04/02 00:26:34;;;;;;;;;;;;;;;12.15;56.15;101320.34;1040460;28;891;-61
2022/04/02 00:27:26;;;;;;;;;;;;;;;12.14;55.92;101317.75;1039459;28;736;-61
2022/04/02 00:28:17;;;;;;;;;;;;;;;12.13;55.38;101322.25;1041100;28;621;-60
2022/04/02 00:29:10;;;;;;;;;;;;;;;12.15;55.59;101319.47;1039754;28;619;-61
2022/04/02 00:30:01;;;;;;;;;;;;;;;12.14;55.94;101328.44;1040577;28;685;-61
2022/04/02 00:30:51;;;;;;;;;;;;;;;12.14;55.81;101323.97;1039286;28;696;-61
2022/04/02 00:31:43;;;;;;;;;;;;;;;12.13;55.25;101316.91;1039370;28;706;-60
2022/04/02 00:32:33;;;;;;;;;;;;;;;12.14;56.14;101323.09;1037258;28;658;-61
2022/04/02 00:33:23;;;;;;;;;;;;;;;12.13;55.55;101321.38;1037232;28;693;-60
2022/04/02 00:34:14;;;;;;;;;;;;;;;12.13;55.47;101324.91;1040652;28;634;-60
2022/04/02 00:35:05;;;;;;;;;;;;;;;12.13;55.57;101326.72;1040532;28;627;-61
2022/04/02 00:35:55;;;;;;;;;;;;;;;12.13;56.02;101329.41;1039139;28;702;-61
2022/04/02 00:36:46;;;;;;;;;;;;;;;12.13;55.54;101329.41;1035537;28;634;-60
2022/04/02 00:37:36;;;;;;;;;;;;;;;12.12;56.09;101327.69;1036639;28;708;-60
2022/04/02 00:38:27;;;;;;;;;;;;;;;12.12;55.96;101325.88;1040477;28;665;-60
2022/04/02 00:39:17;;;;;;;;;;;;;;;12.12;55.95;101322.34;1039521;28;674;-61
2022/04/02 00:40:07;;;;;;;;;;;;;;;12.11;56.09;101324.16;1039240;28;557;-60
2022/04/02 00:40:58;;;;;;;;;;;;;;;12.12;56.05;101338.38;1039420;28;733;-60
2022/04/02 00:41:48;;;;;;;;;;;;;;;12.10;55.58;101327.78;1035629;28;677;-60
2022/04/02 00:42:39;;;;;;;;;;;;;;;12.12;55.47;101330.34;1036596;28;673;-61
2022/04/02 00:43:29;;;;;;;;;;;;;;;12.11;55.56;101329.50;1040604;28;657;-61
2022/04/02 00:44:21;;;;;;;;;;;;;;;12.11;55.53;101324.16;1039303;28;623;-61
2022/04/02 00:45:12;;;;;;;;;;;;;;;12.10;55.57;101326.94;1040361;28;1898;-61
2022/04/02 00:46:02;;;;;;;;;;;;;;;12.11;55.90;101326.81;1039373;28;642;-61
2022/04/02 00:46:52;;;;;;;;;;;;;;;12.10;55.40;101326.94;1039202;28;642;-61
2022/04/02 00:47:43;;;;;;;;;;;;;;;12.10;55.77;101337.59;1039418;28;702;-61
2022/04/02 00:48:33;;;;;;;;;;;;;;;12.10;55.26;101326.94;1040475;28;673;-61
2022/04/02 00:49:24;;;;;;;;;;;;;;;12.09;55.20;101335.88;1039359;28;678;-60
2022/04/02 00:50:14;;;;;;;;;;;;;;;12.09;56.15;101326.06;1039450;28;645;-59
2022/04/02 00:51:04;;;;;;;;;;;;;;;12.09;55.44;101333.22;1035781;28;619;-59
2022/04/02 00:51:55;;;;;;;;;;;;;;;12.10;55.43;101332.25;1038043;28;1473;-59
2022/04/02 00:52:46;;;;;;;;;;;;;;;12.10;55.40;101324.25;1041248;28;627;-60
2022/04/02 00:53:36;;;;;;;;;;;;;;;12.08;55.45;101324.34;1040329;28;714;-60
2022/04/02 00:54:26;;;;;;;;;;;;;;;12.08;55.93;101324.34;1040057;28;997;-60
2022/04/02 00:55:17;;;;;;;;;;;;;;;12.08;55.59;101332.38;1040305;28;565;-61
2022/04/02 00:56:07;;;;;;;;;;;;;;;12.07;55.64;101333.31;1036174;28;1003;-59
2022/04/02 00:56:58;;;;;;;;;;;;;;;12.07;55.81;101336.00;1037528;28;705;-59
2022/04/02 00:57:48;;;;;;;;;;;;;;;12.07;55.87;101333.31;1041380;28;638;-60
2022/04/02 00:58:39;;;;;;;;;;;;;;;12.07;55.61;101332.47;1036278;28;721;-60
2022/04/02 00:59:30;;;;;;;;;;;;;;;12.05;55.58;101327.22;1037483;28;673;-60
2022/04/02 01:00:20;;;;;;;;;;;;;;;12.06;55.37;101333.41;1041559;28;1504;-60
2022/04/02 01:01:11;;;;;;;;;;;;;;;12.06;55.53;101334.28;1041146;28;1261;-60
2022/04/02 01:02:01;;;;;;;;;;;;;;;12.08;55.74;101331.50;1036276;28;611;-60
2022/04/02 01:02:52;;;;;;;;;;;;;;;12.06;55.62;101336.94;1037368;28;626;-60
2022/04/02 01:03:43;;;;;;;;;;;;;;;12.05;56.04;101329.03;1041288;28;630;-60
2022/04/02 01:04:33;;;;;;;;;;;;;;;12.05;55.28;101337.91;1040736;28;642;-60
2022/04/02 01:05:24;;;;;;;;;;;;;;;12.06;56.05;101330.75;1041847;28;1987;-60
2022/04/02 01:06:14;;;;;;;;;;;;;;;12.06;55.58;101341.41;1040357;28;651;-60
2022/04/02 01:07:04;;;;;;;;;;;;;;;12.06;55.98;101339.63;1039973;28;640;-60
2022/04/02 01:07:55;;;;;;;;;;;;;;;12.05;55.64;101340.56;1040107;28;644;-60
2022/04/02 01:08:45;;;;;;;;;;;;;;;12.05;55.96;101340.56;1039835;28;744;-60
2022/04/02 01:09:36;;;;;;;;;;;;;;;12.05;55.47;101343.25;1040123;28;678;-60
2022/04/02 01:10:27;;;;;;;;;;;;;;;12.05;55.89;101334.38;1040293;28;643;-59
2022/04/02 01:11:17;;;;;;;;;;;;;;;12.04;55.92;101333.50;1040604;28;603;-60
2022/04/02 01:12:08;;;;;;;;;;;;;;;12.04;56.02;101333.50;1040193;28;630;-60
2022/04/02 01:12:59;;;;;;;;;;;;;;;12.05;55.56;101337.91;1041071;28;612;-60
2022/04/02 01:13:50;;;;;;;;;;;;;;;12.03;55.53;101334.47;1040457;28;705;-60
2022/04/02 01:14:40;;;;;;;;;;;;;;;12.03;55.70;101345.16;1041269;28;716;-59
2022/04/02 01:15:30;;;;;;;;;;;;;;;12.05;55.59;101339.72;1040043;28;666;-60
2022/04/02 01:16:21;;;;;;;;;;;;;;;12.04;55.45;101341.53;1040218;28;689;-59
2022/04/02 01:17:11;;;;;;;;;;;;;;;12.05;55.76;101339.72;1039807;28;638;-61
2022/04/02 01:18:02;;;;;;;;;;;;;;;12.04;55.71;101351.34;1040052;28;642;-60
2022/04/02 01:18:52;;;;;;;;;;;;;;;12.04;55.70;101344.19;1039721;28;646;-60
2022/04/02 01:19:43;;;;;;;;;;;;;;;12.03;55.52;101342.47;1040117;28;670;-60
2022/04/02 01:20:34;;;;;;;;;;;;;;;12.02;56.06;101340.75;1036336;28;646;-60
2022/04/02 01:21:24;;;;;;;;;;;;;;;12.02;55.47;101346.09;1037371;28;718;-60
2022/04/02 01:22:15;;;;;;;;;;;;;;;12.01;55.49;101349.72;1037997;28;1558;-60
2022/04/02 01:23:05;;;;;;;;;;;;;;;12.02;56.13;101346.09;1036656;28;685;-60
2022/04/02 01:23:56;;;;;;;;;;;;;;;12.02;55.49;101346.09;1036490;28;634;-61
2022/04/02 01:24:46;;;;;;;;;;;;;;;12.02;55.73;101351.44;1037744;28;1496;-59
2022/04/02 01:25:36;;;;;;;;;;;;;;;12.01;56.25;101349.72;1036440;28;1905;-59
2022/04/02 01:26:27;;;;;;;;;;;;;;;12.01;55.84;101347.03;1036653;28;1547;-60
2022/04/02 01:27:18;;;;;;;;;;;;;;;12.02;55.46;101345.25;1036586;28;615;-64
2022/04/02 01:28:08;;;;;;;;;;;;;;;12.01;55.46;101349.72;1038292;28;681;-64
2022/04/02 01:28:59;;;;;;;;;;;;;;;12.01;55.57;101344.38;1036517;28;702;-60
2022/04/02 01:29:49;;;;;;;;;;;;;;;11.99;56.09;101346.31;1036567;28;650;-60
2022/04/02 01:30:39;;;;;;;;;;;;;;;11.99;55.54;101340.97;1036400;28;634;-60
2022/04/02 01:31:30;;;;;;;;;;;;;;;11.99;55.80;101342.78;1036527;28;758;-60
2022/04/02 01:32:20;;;;;;;;;;;;;;;11.98;55.78;101344.59;1037157;28;698;-60
2022/04/02 01:33:11;;;;;;;;;;;;;;;12.00;56.09;101349.84;1036057;28;643;-60
2022/04/02 01:34:01;;;;;;;;;;;;;;;12.00;56.04;101344.50;1038072;28;792;-60
2022/04/02 01:34:52;;;;;;;;;;;;;;;11.98;56.04;101344.59;1037041;28;686;-59
2022/04/02 01:35:42;;;;;;;;;;;;;;;12.00;55.33;101341.84;1036494;28;563;-59
2022/04/02 01:36:32;;;;;;;;;;;;;;;11.99;56.13;101334.78;1036438;28;853;-60
2022/04/02 01:37:23;;;;;;;;;;;;;;;12.00;55.54;101348.00;1036563;28;686;-60
2022/04/02 01:38:13;;;;;;;;;;;;;;;11.99;55.46;101346.31;1036537;28;634;-60
2022/04/02 01:39:04;;;;;;;;;;;;;;;11.99;55.68;101338.31;1036338;28;705;-60
2022/04/02 01:39:54;;;;;;;;;;;;;;;11.99;55.78;101335.63;1036457;28;749;-60
2022/04/02 01:40:44;;;;;;;;;;;;;;;11.97;55.23;101337.53;1036266;28;571;-61
2022/04/02 01:41:35;;;;;;;;;;;;;;;11.97;56.30;101334.88;1036481;28;647;-59
2022/04/02 01:42:26;;;;;;;;;;;;;;;11.98;55.51;101330.38;1036590;28;699;-60
2022/04/02 01:43:17;;;;;;;;;;;;;;;11.97;56.07;101326.84;1036382;28;533;-60
2022/04/02 01:44:07;;;;;;;;;;;;;;;11.97;55.75;101332.19;1037491;28;638;-60
2022/04/02 01:44:57;;;;;;;;;;;;;;;11.97;55.66;101328.66;1036283;28;655;-59
2022/04/02 01:45:48;;;;;;;;;;;;;;;11.96;55.40;101330.47;1036984;28;627;-60
2022/04/02 01:46:38;;;;;;;;;;;;;;;11.96;55.83;101330.47;1038116;28;689;-60
2022/04/02 01:47:29;;;;;;;;;;;;;;;11.97;55.32;101334.88;1036361;28;627;-60
2022/04/02 01:48:19;;;;;;;;;;;;;;;11.96;55.51;101338.50;1038016;28;563;-60
2022/04/02 01:49:10;;;;;;;;;;;;;;;11.95;55.25;101339.44;1036387;28;639;-60
2022/04/02 01:50:00;;;;;;;;;;;;;;;11.95;55.93;101338.59;1036209;28;706;-60
2022/04/02 01:50:51;;;;;;;;;;;;;;;11.95;55.38;101336.78;1041123;28;1201;-60
2022/04/02 01:51:41;;;;;;;;;;;;;;;11.95;56.41;101339.44;1039974;28;1523;-60
2022/04/02 01:52:32;;;;;;;;;;;;;;;11.95;55.52;101336.78;1039825;28;666;-60
2022/04/02 01:53:22;;;;;;;;;;;;;;;11.94;55.52;101348.41;1039958;28;756;-60
2022/04/02 01:54:12;;;;;;;;;;;;;;;11.94;55.63;101337.72;1039703;28;612;-61
2022/04/02 01:55:03;;;;;;;;;;;;;;;11.94;55.27;101339.53;1039951;28;647;-60
2022/04/02 01:55:53;;;;;;;;;;;;;;;11.95;56.05;101342.13;1039672;28;646;-61
2022/04/02 01:56:44;;;;;;;;;;;;;;;11.94;55.56;101342.22;1039832;28;659;-60
2022/04/02 01:57:34;;;;;;;;;;;;;;;11.94;56.28;101344.88;1040109;28;971;-60
2022/04/02 01:58:25;;;;;;;;;;;;;;;11.94;55.76;101342.22;1039829;28;733;-60
2022/04/02 01:59:15;;;;;;;;;;;;;;;11.93;55.79;101337.81;1040069;28;627;-61
2022/04/02 02:00:05;;;;;;;;;;;;;;;11.93;55.68;101344.03;1039647;28;600;-60
2022/04/02 02:00:56;;;;;;;;;;;;;;;11.93;55.43;101349.34;1039667;28;1110;-60
2022/04/02 02:01:46;;;;;;;;;;;;;;;11.92;55.52;101344.97;1040091;28;671;-61
2022/04/02 02:02:37;;;;;;;;;;;;;;;11.90;56.05;101349.53;1035682;28;623;-61
2022/04/02 02:03:27;;;;;;;;;;;;;;;11.92;55.27;101352.97;1036647;28;661;-62
2022/04/02 02:04:18;;;;;;;;;;;;;;;11.92;55.69;101355.66;1041015;28;630;-61
2022/04/02 02:05:08;;;;;;;;;;;;;;;11.92;55.71;101349.44;1039998;28;678;-61
2022/04/02 02:05:59;;;;;;;;;;;;;;;11.92;56.07;101350.31;1039776;28;670;-60
2022/04/02 02:06:50;;;;;;;;;;;;;;;11.92;55.58;101355.66;1040334;28;631;-61
2022/04/02 02:07:40;;;;;;;;;;;;;;;11.90;55.98;101352.22;1039896;28;701;-60
2022/04/02 02:08:31;;;;;;;;;;;;;;;11.90;55.87;101352.22;1039762;28;548;-60
2022/04/02 02:09:21;;;;;;;;;;;;;;;11.89;56.30;101350.50;1041524;28;622;-61
2022/04/02 02:10:12;;;;;;;;;;;;;;;11.92;56.16;101358.31;1039733;28;693;-60
2022/04/02 02:11:02;;;;;;;;;;;;;;;11.92;55.84;101350.31;1039886;28;631;-61
2022/04/02 02:11:52;;;;;;;;;;;;;;;11.92;55.54;101352.13;1039691;28;652;-61
2022/04/02 02:12:43;;;;;;;;;;;;;;;11.91;55.30;101356.59;1039857;28;647;-61
2022/04/02 02:13:33;;;;;;;;;;;;;;;11.90;56.32;101357.56;1040028;28;674;-61
2022/04/02 02:14:24;;;;;;;;;;;;;;;11.90;55.50;101357.56;1036051;28;674;-60
2022/04/02 02:15:17;;;;;;;;;;;;;;;11.90;56.09;101354.03;1037145;28;740;-61
2022/04/02 02:16:07;;;;;;;;;;;;;;;11.90;55.79;101356.69;1040437;28;654;-62
2022/04/02 02:16:57;;;;;;;;;;;;;;;11.90;56.01;101354.03;1039128;28;634;-61
2022/04/02 02:17:48;;;;;;;;;;;;;;;11.88;55.93;101354.13;1039763;28;645;-61
2022/04/02 02:18:38;;;;;;;;;;;;;;;11.88;55.60;101347.91;1040071;28;657;-61
2022/04/02 02:19:29;;;;;;;;;;;;;;;11.89;55.62;101349.63;1039689;28;651;-61
2022/04/02 02:20:19;;;;;;;;;;;;;;;11.89;55.69;101354.97;1039947;28;702;-61
2022/04/02 02:21:09;;;;;;;;;;;;;;;11.88;56.17;101354.13;1039640;28;546;-61
2022/04/02 02:22:00;;;;;;;;;;;;;;;11.88;55.76;101353.25;1036553;28;1400;-61
2022/04/02 02:22:51;;;;;;;;;;;;;;;11.88;55.77;101353.25;1036240;28;625;-61
2022/04/02 02:23:41;;;;;;;;;;;;;;;11.89;55.72;101360.31;1036395;28;649;-61
2022/04/02 02:24:32;;;;;;;;;;;;;;;11.88;55.87;101361.28;1036318;28;595;-61
2022/04/02 02:25:23;;;;;;;;;;;;;;;11.88;55.54;101364.81;1036068;28;1988;-62
2022/04/02 02:26:13;;;;;;;;;;;;;;;11.87;56.08;101360.41;1036317;28;565;-61
2022/04/02 02:27:03;;;;;;;;;;;;;;;11.87;56.19;101362.22;1036330;28;725;-61
2022/04/02 02:27:54;;;;;;;;;;;;;;;11.88;55.93;101359.47;1037848;28;618;-61
2022/04/02 02:28:44;;;;;;;;;;;;;;;11.88;55.46;101362.13;1036392;28;713;-62
2022/04/02 02:29:35;;;;;;;;;;;;;;;11.87;56.01;101363.09;1036233;28;703;-61
2022/04/02 02:30:26;;;;;;;;;;;;;;;11.86;56.23;101360.50;1037914;28;634;-61
2022/04/02 02:31:16;;;;;;;;;;;;;;;11.86;55.66;101364.03;1035907;28;619;-61
2022/04/02 02:32:07;;;;;;;;;;;;;;;11.87;55.93;101370.22;1037886;28;665;-61
2022/04/02 02:35:49;;;;;;;;;;;;;;;11.86;56.27;101366.69;1036347;28;654;-59
2022/04/02 02:36:30;;;;;;;;;;;;;;;11.85;56.22;101359.66;1023087;29;639;-61
2022/04/02 02:37:20;;;;;;;;;;;;;;;11.85;55.83;101359.66;1023927;29;936;-61
2022/04/02 02:38:11;;;;;;;;;;;;;;;11.84;55.78;101363.28;1024184;29;607;-61
2022/04/02 02:39:01;;;;;;;;;;;;;;;11.83;55.97;101357.06;1024272;29;662;-61
2022/04/02 02:39:51;;;;;;;;;;;;;;;11.85;55.92;101359.66;1024226;29;666;-61
2022/04/02 02:40:42;;;;;;;;;;;;;;;11.84;56.15;101355.25;1023718;29;1322;-61
2022/04/02 02:41:32;;;;;;;;;;;;;;;11.82;56.12;101358.03;1023879;29;628;-61
2022/04/02 02:42:23;;;;;;;;;;;;;;;11.83;56.09;101354.41;1023604;29;698;-61
2022/04/02 02:43:13;;;;;;;;;;;;;;;11.83;55.28;101359.75;1023826;29;682;-61
2022/04/02 02:44:04;;;;;;;;;;;;;;;11.84;55.96;101360.59;1023724;29;694;-61
2022/04/02 02:44:54;;;;;;;;;;;;;;;11.82;55.75;101359.88;1024286;29;619;-61
2022/04/02 02:45:45;;;;;;;;;;;;;;;11.82;55.50;101358.03;1023234;29;1902;-61
2022/04/02 02:46:35;;;;;;;;;;;;;;;11.81;55.78;101351.00;1023779;29;616;-60
2022/04/02 02:47:26;;;;;;;;;;;;;;;11.81;55.97;101364.34;1024245;29;866;-61
2022/04/02 02:48:16;;;;;;;;;;;;;;;11.82;55.46;101360.69;1023851;29;691;-61
2022/04/02 02:49:07;;;;;;;;;;;;;;;11.82;56.00;101359.88;1023682;29;596;-60
2022/04/02 02:49:57;;;;;;;;;;;;;;;11.81;56.21;101355.47;1024317;29;667;-62
2022/04/02 02:50:48;;;;;;;;;;;;;;;11.80;56.02;101357.28;1026197;28;1215;-61
2022/04/02 02:51:38;;;;;;;;;;;;;;;11.81;55.65;101355.47;1024881;29;674;-61
2022/04/02 02:52:28;;;;;;;;;;;;;;;11.81;55.70;101359.00;1024788;29;644;-61
2022/04/02 02:53:19;;;;;;;;;;;;;;;11.80;56.12;101361.75;1027221;28;1550;-60
2022/04/02 02:54:09;;;;;;;;;;;;;;;11.80;55.66;101359.09;1027795;28;671;-60
2022/04/02 02:55:00;;;;;;;;;;;;;;;11.81;55.56;101361.66;1027654;28;677;-62
2022/04/02 02:55:50;;;;;;;;;;;;;;;11.80;55.84;101359.97;1027826;28;664;-60
2022/04/02 02:56:41;;;;;;;;;;;;;;;11.80;55.43;101362.63;1027590;28;730;-60
2022/04/02 02:57:31;;;;;;;;;;;;;;;11.79;55.67;101363.56;1027693;28;674;-60
2022/04/02 02:58:21;;;;;;;;;;;;;;;11.80;55.40;101361.75;1028693;28;650;-60
2022/04/02 02:59:12;;;;;;;;;;;;;;;11.79;56.19;101360.91;1027468;28;790;-60
2022/04/02 03:00:03;;;;;;;;;;;;;;;11.80;55.88;101359.09;1027563;28;1059;-60
2022/04/02 03:00:53;;;;;;;;;;;;;;;11.79;56.02;101366.25;1027758;28;566;-60
2022/04/02 03:01:44;;;;;;;;;;;;;;;11.79;56.06;101366.25;1027583;28;623;-60
2022/04/02 03:02:34;;;;;;;;;;;;;;;11.79;55.82;101360.91;1028260;28;733;-60
2022/04/02 03:03:25;;;;;;;;;;;;;;;11.80;55.54;101367.09;1027381;28;651;-60
2022/04/02 03:04:17;;;;;;;;;;;;;;;11.78;55.74;101369.88;1027758;28;631;-60
2022/04/02 03:05:10;;;;;;;;;;;;;;;11.79;55.50;101360.03;1024354;29;717;-60
2022/04/02 03:06:01;;;;;;;;;;;;;;;11.78;55.56;101364.53;1024172;29;638;-60
2022/04/02 03:06:51;;;;;;;;;;;;;;;11.76;56.13;101366.44;1028198;28;956;-59
2022/04/02 03:07:48;;;;;;;;;;;;;;;11.78;56.00;101363.66;1027456;28;627;-60
2022/04/02 03:08:38;;;;;;;;;;;;;;;11.78;55.98;101364.53;1027673;28;647;-60
2022/04/02 03:09:29;;;;;;;;;;;;;;;11.78;55.71;101361.84;1027452;28;621;-59
2022/04/02 03:10:19;;;;;;;;;;;;;;;11.77;55.82;101357.47;1027602;28;779;-59
2022/04/02 03:11:10;;;;;;;;;;;;;;;11.77;56.27;101361.94;1024114;29;574;-59
2022/04/02 03:12:01;;;;;;;;;;;;;;;11.77;55.78;101367.28;1024671;29;780;-60
2022/04/02 03:12:51;;;;;;;;;;;;;;;11.77;55.53;101361.94;1028192;28;702;-60
2022/04/02 03:13:41;;;;;;;;;;;;;;;11.76;55.71;101361.09;1036872;28;556;-60
2022/04/02 03:14:32;;;;;;;;;;;;;;;11.76;56.02;101365.56;1036856;28;614;-60
2022/04/02 03:15:23;;;;;;;;;;;;;;;11.75;55.62;101364.69;1037164;28;709;-61
2022/04/02 03:16:13;;;;;;;;;;;;;;;11.76;56.13;101365.56;1037173;28;626;-60
2022/04/02 03:17:03;;;;;;;;;;;;;;;11.76;56.30;101365.56;1037235;28;674;-60
2022/04/02 03:17:54;;;;;;;;;;;;;;;11.76;55.32;101365.56;1037160;28;627;-60
2022/04/02 03:18:45;;;;;;;;;;;;;;;11.76;56.17;101366.44;1037302;28;626;-61
2022/04/02 03:19:36;;;;;;;;;;;;;;;11.75;56.39;101367.34;1036102;28;669;-61
2022/04/02 03:20:26;;;;;;;;;;;;;;;11.75;55.86;101366.50;1033379;28;702;-60
2022/04/02 03:21:17;;;;;;;;;;;;;;;11.75;55.88;101374.50;1034051;28;1647;-60
2022/04/02 03:22:07;;;;;;;;;;;;;;;11.75;56.10;101369.16;1040932;28;657;-60
2022/04/02 03:22:58;;;;;;;;;;;;;;;11.75;56.28;101369.16;1041292;28;622;-60
2022/04/02 03:23:48;;;;;;;;;;;;;;;11.75;56.10;101379.84;1040120;28;599;-60
2022/04/02 03:24:38;;;;;;;;;;;;;;;11.75;55.77;101371.81;1040652;28;661;-60
2022/04/02 03:25:29;;;;;;;;;;;;;;;11.74;55.50;101367.44;1040001;28;1957;-60
2022/04/02 03:26:20;;;;;;;;;;;;;;;11.75;55.28;101371.81;1040183;28;724;-60
2022/04/02 03:27:10;;;;;;;;;;;;;;;11.73;56.03;101371.91;1040019;28;720;-59
2022/04/02 03:28:01;;;;;;;;;;;;;;;11.73;55.59;101377.25;1041259;28;625;-60
2022/04/02 03:28:51;;;;;;;;;;;;;;;11.74;56.15;101375.44;1040238;28;590;-59
2022/04/02 03:29:42;;;;;;;;;;;;;;;11.73;55.80;101366.56;1039983;28;607;-60
2022/04/02 03:30:32;;;;;;;;;;;;;;;11.72;55.63;101375.53;1041198;28;892;-60
2022/04/02 03:31:22;;;;;;;;;;;;;;;11.73;55.97;101376.41;1039985;28;559;-60
2022/04/02 03:32:13;;;;;;;;;;;;;;;11.72;55.83;101374.69;1040204;28;626;-60
2022/04/02 03:33:04;;;;;;;;;;;;;;;11.73;55.67;101376.41;1040183;28;639;-60
2022/04/02 03:33:54;;;;;;;;;;;;;;;11.72;55.97;101377.34;1041429;28;669;-60
2022/04/02 03:34:45;;;;;;;;;;;;;;;11.72;55.79;101374.69;1039987;28;627;-60
2022/04/02 03:35:35;;;;;;;;;;;;;;;11.72;55.88;101380.03;1040232;28;729;-61
2022/04/02 03:36:26;;;;;;;;;;;;;;;11.72;55.67;101380.03;1037371;28;1516;-60
2022/04/02 03:37:16;;;;;;;;;;;;;;;11.70;55.71;101373.91;1032874;28;654;-60
2022/04/02 03:38:08;;;;;;;;;;;;;;;11.71;55.69;101372.97;1036114;28;713;-60
2022/04/02 03:38:58;;;;;;;;;;;;;;;11.71;55.58;101375.63;1037210;28;661;-59
2022/04/02 03:39:49;;;;;;;;;;;;;;;11.70;55.49;101380.13;1036582;28;649;-60
2022/04/02 03:40:41;;;;;;;;;;;;;;;11.71;56.07;101383.63;1037326;28;708;-61
2022/04/02 03:41:31;;;;;;;;;;;;;;;11.71;55.58;101380.97;1036840;28;651;-62
2022/04/02 03:42:21;;;;;;;;;;;;;;;11.70;55.87;101376.59;1037311;28;662;-62
2022/04/02 03:43:12;;;;;;;;;;;;;;;11.70;55.25;101381.91;1037140;28;602;-61
2022/04/02 03:44:02;;;;;;;;;;;;;;;11.69;55.47;101375.72;1036806;28;697;-61
2022/04/02 03:44:53;;;;;;;;;;;;;;;11.68;55.61;101381.16;1037063;28;650;-61
2022/04/02 03:45:43;;;;;;;;;;;;;;;11.70;55.27;101377.44;1036492;28;1959;-62
2022/04/02 03:47:43;;;;;;;;;;;;;;;11.68;55.56;101376.69;1036558;28;627;-61
2022/04/02 03:48:33;;;;;;;;;;;;;;;11.68;55.91;101378.47;1037061;28;697;-61
2022/04/02 03:49:26;;;;;;;;;;;;;;;11.68;56.24;101376.69;1036974;28;634;-61
2022/04/02 03:50:16;;;;;;;;;;;;;;;11.69;56.16;101380.19;1037097;28;653;-61
2022/04/02 03:51:06;;;;;;;;;;;;;;;11.68;55.46;101373.16;1040331;28;649;-61
2022/04/02 03:51:57;;;;;;;;;;;;;;;11.68;55.56;101378.47;1037397;28;642;-60
2022/04/02 03:52:47;;;;;;;;;;;;;;;11.67;55.40;101374.94;1036695;28;669;-60
2022/04/02 03:53:38;;;;;;;;;;;;;;;11.67;56.08;101382.09;1035753;28;611;-59
2022/04/02 03:54:28;;;;;;;;;;;;;;;11.68;55.74;101381.16;1037070;28;705;-59
2022/04/02 03:55:18;;;;;;;;;;;;;;;11.67;56.07;101376.75;1037102;28;646;-59
2022/04/02 03:56:10;;;;;;;;;;;;;;;11.66;55.80;101375.91;1037143;28;1032;-60
2022/04/02 03:57:01;;;;;;;;;;;;;;;11.67;56.12;101382.09;1037037;28;642;-59
2022/04/02 03:57:52;;;;;;;;;;;;;;;11.66;55.56;101380.38;1037065;28;690;-59
2022/04/02 03:58:42;;;;;;;;;;;;;;;11.65;55.99;101378.66;1037040;28;614;-59
2022/04/02 03:59:32;;;;;;;;;;;;;;;11.65;56.16;101379.53;1036974;28;630;-60
2022/04/02 04:00:23;;;;;;;;;;;;;;;11.64;55.63;101383.19;1037015;28;630;-60
2022/04/02 04:01:13;;;;;;;;;;;;;;;11.66;55.58;101375.91;1036867;28;1258;-59
2022/04/02 04:02:06;;;;;;;;;;;;;;;11.64;55.50;101379.66;1037129;28;654;-60
2022/04/02 04:02:57;;;;;;;;;;;;;;;11.64;56.08;101376.97;1037028;28;685;-60
2022/04/02 04:03:48;;;;;;;;;;;;;;;11.64;56.01;101374.31;1033228;28;612;-61
2022/04/02 04:04:38;;;;;;;;;;;;;;;11.64;55.90;101375.16;1033256;28;662;-61
2022/04/02 04:05:29;;;;;;;;;;;;;;;11.65;56.17;101384.00;1036467;28;1914;-60
2022/04/02 04:06:19;;;;;;;;;;;;;;;11.65;56.05;101378.66;1037139;28;626;-61
2022/04/02 04:07:09;;;;;;;;;;;;;;;11.66;56.00;101385.72;1037101;28;717;-61
2022/04/02 04:08:01;;;;;;;;;;;;;;;11.66;55.73;101375.03;1037015;28;615;-61
2022/04/02 04:08:52;;;;;;;;;;;;;;;11.65;55.96;101370.66;1037012;28;599;-60
2022/04/02 04:09:42;;;;;;;;;;;;;;;11.65;55.74;101376.84;1036958;28;666;-61
2022/04/02 04:10:33;;;;;;;;;;;;;;;11.65;55.67;101381.34;1037004;28;720;-61
2022/04/02 04:11:24;;;;;;;;;;;;;;;11.65;55.75;101392.00;1037079;28;709;-60
2022/04/02 04:12:14;;;;;;;;;;;;;;;11.66;55.49;101391.06;1037021;28;626;-60
2022/04/02 04:13:05;;;;;;;;;;;;;;;11.64;55.81;101393.00;1036615;28;685;-60
2022/04/02 04:13:56;;;;;;;;;;;;;;;11.64;56.07;101388.50;1036998;28;634;-60
2022/04/02 04:14:47;;;;;;;;;;;;;;;11.65;56.30;101392.00;1037013;28;685;-60
2022/04/02 04:15:37;;;;;;;;;;;;;;;11.65;56.17;101392.00;1036948;28;641;-60
2022/04/02 04:16:27;;;;;;;;;;;;;;;11.64;55.76;101387.66;1036921;28;669;-60
2022/04/02 04:17:18;;;;;;;;;;;;;;;11.65;55.58;101394.69;1037088;28;614;-60
2022/04/02 04:18:08;;;;;;;;;;;;;;;11.65;55.88;101392.88;1037077;28;717;-60
2022/04/02 04:18:59;;;;;;;;;;;;;;;11.65;55.47;101394.69;1037094;28;646;-60
2022/04/02 04:19:50;;;;;;;;;;;;;;;11.65;55.58;101397.34;1037016;28;594;-60
2022/04/02 04:20:41;;;;;;;;;;;;;;;11.64;55.34;101401.88;1036937;28;641;-60
2022/04/02 04:21:31;;;;;;;;;;;;;;;11.65;55.89;101402.69;1033247;28;654;-60
2022/04/02 04:22:21;;;;;;;;;;;;;;;11.65;55.97;101400.03;1032612;28;724;-60
2022/04/02 04:23:12;;;;;;;;;;;;;;;11.64;55.97;101401.88;1037642;28;1496;-60
2022/04/02 04:24:02;;;;;;;;;;;;;;;11.65;55.75;101395.53;1037536;28;650;-60
2022/04/02 04:24:53;;;;;;;;;;;;;;;11.65;55.42;101402.69;1037585;28;716;-60
2022/04/02 04:25:43;;;;;;;;;;;;;;;11.64;55.68;101395.66;1035757;28;1882;-59
2022/04/02 04:26:34;;;;;;;;;;;;;;;11.64;56.36;101401.00;1035986;28;716;-60
2022/04/02 04:27:24;;;;;;;;;;;;;;;11.64;55.87;101401.88;1035352;28;681;-60
2022/04/02 04:28:14;;;;;;;;;;;;;;;11.65;55.77;101405.34;1036003;28;573;-59
2022/04/02 04:29:05;;;;;;;;;;;;;;;11.64;55.36;101401.88;1036951;28;671;-60
2022/04/02 04:29:56;;;;;;;;;;;;;;;11.65;55.62;101405.34;1035870;28;732;-60
2022/04/02 04:30:48;;;;;;;;;;;;;;;11.64;55.66;101398.34;1036848;28;551;-59